Latest Weather Observations for Melbourne (Olympic Park)

IDV60801

Issued at 5:02 pm EDT Wednesday 22 February 2017 (issued every 30 minutes, with the page automatically refreshed every 10 minutes)

About weather observations | Map of weather stations | Latest weather observations for VIC | Other Formats
Station Details ID: 086338 Name: MELBOURNE (OLYMPIC PARK) Lat: -37.83 Lon: 144.98 Height: 7.53 m
Data from the previous 72 hours. | See also: Recent months at Melbourne (Olympic Park)
Date/Time
EDT
Temp
°C
App
Temp
°C
Dew
Point
°C
Rel
Hum
%
Delta-T
°C
Wind Press
QNH
hPa
Press
MSL
hPa
Rain since
9am
mm
Dir  Spd
km/h
Gust
km/h
Spd
kts
Gust
kts
22/05:00pm 31.9 26.8 6.2 20 13.8 N 22 35 12 19 1008.9 1008.9 0.0
22/04:42pm 31.7 25.3 5.3 19 14.0 N 28 48 15 26 1009.0 1009.0 0.0
22/04:30pm 31.7 26.1 5.3 19 14.0 N 24 35 13 19 1009.1 1009.1 0.0
22/04:00pm 31.6 26.1 5.9 20 13.7 N 24 41 13 22 1009.5 1009.5 0.0
22/03:30pm 31.6 26.6 6.6 21 13.5 N 22 33 12 18 1009.5 1009.5 0.0
22/03:00pm 31.1 26.5 8.2 24 12.7 N 22 37 12 20 1010.4 1010.4 0.0
22/02:33pm 30.3 24.3 6.9 23 12.6 N 28 46 15 25 1011.3 1011.3 0.0
22/02:30pm 30.7 26.1 9.6 27 11.9 N 24 37 13 20 1011.3 1011.3 0.0
22/02:01pm 29.8 23.7 6.5 23 12.4 N 28 46 15 25 1011.8 1011.8 0.0
22/02:00pm 29.9 24.3 7.2 24 12.3 N 26 46 14 25 1011.8 1011.8 0.0
22/01:30pm 29.4 24.9 8.5 27 11.5 N 22 39 12 21 1012.3 1012.3 0.0
22/01:06pm 28.4 22.3 6.5 25 11.6 N 28 52 15 28 1012.6 1012.6 0.0
22/01:00pm 28.5 23.5 6.6 25 11.6 N 22 52 12 28 1012.8 1012.8 0.0
22/12:30pm 28.0 23.1 6.7 26 11.3 N 22 33 12 18 1013.5 1013.5 0.0
22/12:10pm 27.5 21.3 6.3 26 11.1 N 28 46 15 25 1013.9 1013.9 0.0
22/12:00pm 27.8 22.4 8.1 29 10.7 N 26 41 14 22 1014.0 1014.0 0.0
22/11:30am 27.0 23.1 6.9 28 10.6 N 17 28 9 15 1014.5 1014.5 0.0
22/11:00am 25.6 22.5 7.2 31 9.7 NNW 13 26 7 14 1014.8 1014.8 0.0
22/10:30am 24.7 24.2 7.8 34 8.9 CALM 0 6 0 3 1015.2 1015.2 0.0
22/10:00am 21.6 19.5 8.1 42 7.1 NE 9 13 5 7 1015.2 1015.2 0.0
22/09:30am 19.0 17.2 8.1 49 5.6 NNE 7 11 4 6 1015.4 1015.4 0.0
22/09:00am 17.2 14.7 8.1 55 4.6 NNE 11 15 6 8 1015.5 1015.5 0.0
22/08:30am 15.8 12.8 7.8 59 4.0 NNE 13 17 7 9 1015.6 1015.6 0.0
22/08:00am 14.1 11.6 8.1 67 3.0 NNE 11 15 6 8 1015.7 1015.7 0.0
22/07:30am 13.3 10.4 8.0 70 2.6 NNE 13 17 7 9 1015.5 1015.5 0.0
22/07:00am 13.2 11.1 8.3 72 2.4 N 9 13 5 7 1015.6 1015.6 0.0
22/06:30am 13.3 11.6 8.4 72 2.4 N 7 11 4 6 1015.4 1015.4 0.0
22/06:00am 13.0 11.1 8.9 76 2.1 NNE 9 13 5 7 1015.1 1015.1 0.0
22/05:30am 13.1 11.6 9.2 77 2.0 NNE 7 13 4 7 1015.2 1015.2 0.0
22/05:00am 13.1 11.9 9.4 78 1.9 NNE 6 11 3 6 1015.3 1015.3 0.0
22/04:30am 13.3 11.8 9.2 76 2.1 NNE 7 11 4 6 1015.6 1015.6 0.0
22/04:00am 13.5 12.1 9.6 77 2.0 NNE 7 9 4 5 1015.9 1015.9 0.0
22/03:30am 13.8 12.6 10.2 79 1.9 NNE 7 9 4 5 1016.2 1016.2 0.0
22/03:00am 14.5 13.1 10.9 79 1.9 NNE 9 15 5 8 1016.3 1016.3 0.0
22/02:30am 14.6 13.3 11.4 81 1.7 NE 9 11 5 6 1016.7 1016.7 0.0
22/02:00am 14.2 15.0 12.4 89 1.0 CALM 0 0 0 0 1016.9 1016.9 0.0
22/01:30am 14.4 15.2 12.6 89 1.0 CALM 0 0 0 0 1017.2 1017.2 0.0
22/01:00am 14.4 15.2 12.4 88 1.1 CALM 0 0 0 0 1017.5 1017.5 0.0
22/12:30am 14.7 15.5 12.4 86 1.3 CALM 0 0 0 0 1017.9 1017.9 0.0
22/12:00am 15.1 15.8 12.2 83 1.6 CALM 0 0 0 0 1018.1 1018.1 0.0
 
Date/Time
EDT
Temp
°C
App
Temp
°C
Dew
Point
°C
Rel
Hum
%
Delta-T
°C
Wind Press
QNH
hPa
Press
MSL
hPa
Rain since
9am
mm
Dir  Spd
km/h
Gust
km/h
Spd
kts
Gust
kts
21/11:30pm 15.9 16.6 12.1 78 2.1 CALM 0 0 0 0 1018.1 1018.1 0.0
21/11:00pm 16.8 17.3 11.5 71 2.9 CALM 0 0 0 0 1018.2 1018.2 0.0
21/10:30pm 18.0 18.0 11.1 64 3.7 ESE 2 7 1 4 1018.3 1018.3 0.0
21/10:00pm 18.6 17.2 10.9 61 4.2 ESE 9 15 5 8 1018.2 1018.2 0.0
21/09:30pm 19.0 17.6 10.8 59 4.4 ESE 9 15 5 8 1018.1 1018.1 0.0
21/09:00pm 19.6 18.2 10.9 57 4.7 ESE 9 13 5 7 1017.7 1017.7 0.0
21/08:30pm 20.3 18.9 11.0 55 5.1 SE 9 17 5 9 1017.5 1017.5 0.0
21/08:00pm 21.2 19.4 11.0 52 5.6 SE 11 19 6 10 1017.3 1017.3 0.0
21/07:30pm 22.1 19.9 10.9 49 6.2 SE 13 24 7 13 1017.0 1017.0 0.0
21/07:00pm 23.5 21.5 8.8 39 7.9 SSE 9 17 5 9 1017.2 1017.2 0.0
21/06:30pm 23.9 22.0 9.1 39 8.0 SSE 9 19 5 10 1017.2 1017.2 0.0
21/06:00pm 23.5 21.5 8.8 39 7.9 SE 9 22 5 12 1017.2 1017.2 0.0
21/05:30pm 23.4 21.4 8.7 39 7.9 SSE 9 15 5 8 1017.5 1017.5 0.0
21/05:00pm 23.1 20.6 8.0 38 7.9 SSW 11 19 6 10 1017.9 1017.9 0.0
21/04:30pm 22.0 19.1 6.7 37 7.8 S 11 19 6 10 1018.5 1018.5 0.0
21/04:00pm 21.7 18.6 7.2 39 7.4 SSW 13 20 7 11 1018.8 1018.8 0.0
21/03:30pm 20.9 18.3 7.9 43 6.7 S 11 20 6 11 1019.1 1019.1 0.0
21/03:00pm 21.5 18.8 9.1 45 6.6 SSW 13 20 7 11 1019.4 1019.4 0.0
21/02:30pm 20.9 18.7 9.2 47 6.2 S 11 17 6 9 1019.9 1019.9 0.0
21/02:00pm 20.7 19.3 8.7 46 6.3 SE 6 17 3 9 1020.0 1020.0 0.0
21/01:30pm 20.3 18.7 10.1 52 5.5 SSW 9 17 5 9 1020.4 1020.4 0.0
21/01:00pm 19.3 16.9 8.6 50 5.5 SSW 11 19 6 10 1021.1 1021.1 0.0
21/12:30pm 20.0 17.8 9.3 50 5.7 SSW 11 19 6 10 1021.3 1021.3 0.0
21/12:00pm 19.3 17.8 9.2 52 5.3 SW 7 11 4 6 1021.6 1021.6 0.0
21/11:30am 18.7 17.3 8.9 53 5.1 S 6 11 3 6 1021.5 1021.5 0.0
21/11:00am 18.3 18.1 9.1 55 4.8 CALM 0 6 0 3 1021.8 1021.8 0.0
21/10:30am 17.8 17.6 8.9 56 4.6 CALM 0 2 0 1 1021.9 1021.9 0.0
21/10:00am 16.6 15.7 9.3 62 3.8 W 4 9 2 5 1022.1 1022.1 0.0
21/09:30am 16.1 15.7 8.3 60 4.0 CALM 0 0 0 0 1021.8 1021.8 0.0
21/09:00am 14.5 12.9 8.0 65 3.2 NE 6 7 3 4 1021.6 1021.6 0.2
21/08:30am 12.9 12.0 7.8 71 2.5 NE 2 9 1 5 1021.4 1021.4 0.2
21/08:00am 11.2 9.2 7.3 77 1.9 NNE 7 11 4 6 1021.2 1021.2 0.2
21/07:30am 10.3 7.9 7.0 80 1.6 NE 9 13 5 7 1020.7 1020.7 0.2
21/07:00am 10.1 7.7 7.0 81 1.5 NNE 9 11 5 6 1020.2 1020.2 0.2
21/06:30am 10.4 8.4 7.3 81 1.5 NE 7 11 4 6 1019.8 1019.8 0.2
21/06:00am 10.7 9.1 7.8 82 1.4 ENE 6 11 3 6 1019.5 1019.5 0.2
21/05:30am 10.9 10.3 7.6 80 1.6 CALM 0 0 0 0 1019.3 1019.3 0.2
21/05:00am 11.7 10.4 7.6 76 2.0 N 4 7 2 4 1019.3 1019.3 0.2
21/04:30am 12.2 11.8 8.1 76 2.0 CALM 0 6 0 3 1019.2 1019.2 0.2
21/04:00am 12.4 11.3 8.5 77 1.9 WNW 4 11 2 6 1018.9 1018.9 0.2
21/03:30am 12.8 11.7 8.3 74 2.2 WNW 4 11 2 6 1018.9 1018.9 0.2
21/03:00am 12.8 12.0 8.1 73 2.3 WNW 2 7 1 4 1018.8 1018.8 0.2
21/02:30am 13.0 11.8 8.1 72 2.4 WNW 4 9 2 5 1018.7 1018.7 0.2
21/02:00am 13.3 11.7 8.2 71 2.5 WNW 6 11 3 6 1018.8 1018.8 0.2
21/01:30am 13.5 11.8 7.7 68 2.9 WNW 6 11 3 6 1019.0 1019.0 0.2
21/01:00am 14.2 12.5 8.2 67 3.0 WNW 7 11 4 6 1019.0 1019.0 0.2
21/12:30am 14.5 12.9 8.0 65 3.2 WSW 6 13 3 7 1019.1 1019.1 0.2
21/12:00am 15.0 12.8 7.8 62 3.6 WSW 9 15 5 8 1018.8 1018.8 0.2
 
Date/Time
EDT
Temp
°C
App
Temp
°C
Dew
Point
°C
Rel
Hum
%
Delta-T
°C
Wind Press
QNH
hPa
Press
MSL
hPa
Rain since
9am
mm
Dir  Spd
km/h
Gust
km/h
Spd
kts
Gust
kts
20/11:30pm 15.4 13.2 7.7 60 3.8 W 9 17 5 9 1018.8 1018.8 0.2
20/11:00pm 15.8 13.9 7.6 58 4.1 W 7 20 4 11 1018.6 1018.6 0.2
20/10:30pm 16.3 14.6 9.7 65 3.4 SW 9 15 5 8 1018.4 1018.4 0.2
20/10:00pm 16.1 14.8 9.8 66 3.3 SSW 7 15 4 8 1018.1 1018.1 0.2
20/09:30pm 16.4 14.8 10.3 67 3.2 SSW 9 17 5 9 1017.8 1017.8 0.2
20/09:00pm 16.6 14.7 10.5 67 3.2 SSW 11 24 6 13 1017.2 1017.2 0.2
20/08:30pm 16.7 13.9 9.9 64 3.6 S 15 26 8 14 1016.7 1016.7 0.2
20/08:00pm 17.0 14.6 10.1 64 3.6 SSW 13 26 7 14 1016.3 1016.3 0.2
20/07:30pm 17.4 14.7 10.3 63 3.8 S 15 30 8 16 1015.9 1015.9 0.2
20/07:00pm 17.5 14.7 9.9 61 4.0 S 15 30 8 16 1015.5 1015.5 0.2
20/06:30pm 17.8 15.5 10.4 62 3.9 S 13 26 7 14 1015.2 1015.2 0.2
20/06:00pm 18.2 15.0 9.8 58 4.4 S 17 33 9 18 1014.9 1014.9 0.2
20/05:30pm 18.5 15.0 10.3 59 4.4 S 19 33 10 18 1014.6 1014.6 0.2
20/05:00pm 18.9 15.8 10.2 57 4.7 S 17 30 9 16 1014.2 1014.2 0.2
20/04:30pm 19.0 16.4 10.6 58 4.5 S 15 37 8 20 1013.9 1013.9 0.2
20/04:00pm 19.1 15.9 10.1 56 4.8 S 17 32 9 17 1013.6 1013.6 0.2
20/03:30pm 19.8 16.9 11.0 57 4.8 S 17 33 9 18 1013.3 1013.3 0.2
20/03:00pm 19.2 16.2 7.6 47 5.9 S 13 28 7 15 1013.3 1013.3 0.2
20/02:30pm 19.4 15.1 7.2 45 6.2 S 19 32 10 17 1013.4 1013.4 0.2
20/02:00pm 19.1 16.2 8.1 49 5.7 SSW 13 24 7 13 1013.4 1013.4 0.2
20/01:30pm 19.4 16.5 8.1 48 5.8 SSW 13 26 7 14 1013.2 1013.2 0.2
20/01:00pm 19.2 16.2 9.4 53 5.2 SSW 15 28 8 15 1013.3 1013.3 0.2
20/12:30pm 18.2 14.3 8.5 53 5.0 SSW 19 35 10 19 1013.5 1013.5 0.2
20/12:00pm 18.3 15.3 9.4 56 4.7 SW 15 30 8 16 1013.5 1013.5 0.2
20/11:30am 17.8 14.8 9.2 57 4.5 WSW 15 26 8 14 1013.6 1013.6 0.2
20/11:00am 16.9 14.2 8.8 59 4.2 WSW 13 30 7 16 1013.7 1013.7 0.2
20/10:30am 15.7 12.9 8.7 63 3.6 WSW 13 26 7 14 1013.6 1013.6 0.0
20/10:00am 14.8 12.6 9.2 69 2.9 W 11 20 6 11 1013.4 1013.4 0.0
20/09:30am 14.4 12.0 8.8 69 2.8 W 11 20 6 11 1013.0 1013.0 0.0
20/09:00am 14.2 11.5 8.8 70 2.7 W 13 24 7 13 1012.7 1012.7 3.6
20/08:30am 13.2 11.3 8.9 75 2.2 WNW 9 19 5 10 1012.4 1012.4 3.6
20/08:00am 12.9 10.6 9.0 77 2.0 WNW 11 17 6 9 1012.1 1012.1 3.6
20/07:30am 12.7 10.7 8.8 77 2.0 WNW 9 17 5 9 1011.4 1011.4 3.6
20/07:00am 12.4 10.4 8.7 78 1.8 WNW 9 19 5 10 1011.3 1011.3 3.6
20/06:30am 12.1 9.7 8.6 79 1.7 WNW 11 22 6 12 1011.0 1011.0 3.6
20/06:00am 12.1 10.0 8.4 78 1.8 WNW 9 19 5 10 1010.8 1010.8 3.6
20/05:30am 12.0 9.1 8.3 78 1.8 WNW 13 24 7 13 1010.7 1010.7 3.6
20/05:00am 11.8 9.4 8.5 80 1.6 W 11 22 6 12 1010.4 1010.4 3.6
20/04:30am 12.2 9.7 8.3 77 1.9 WNW 11 20 6 11 1010.4 1010.4 3.2
20/04:00am 12.4 9.8 7.9 74 2.2 W 11 20 6 11 1010.3 1010.3 3.0
20/03:30am 12.3 9.7 7.6 73 2.3 NW 11 19 6 10 1010.2 1010.2 3.0
20/03:00am 12.2 10.0 7.7 74 2.2 WNW 9 17 5 9 1010.3 1010.3 3.0
20/02:30am 11.8 9.6 7.9 77 1.9 WNW 9 13 5 7 1010.3 1010.3 3.0
20/02:00am 11.8 9.2 7.7 76 2.0 WNW 11 20 6 11 1010.5 1010.5 2.8
20/01:30am 12.0 9.7 7.5 74 2.2 WNW 9 15 5 8 1010.6 1010.6 2.6
20/01:00am 12.0 9.3 7.3 73 2.3 W 11 20 6 11 1010.5 1010.5 2.6
20/12:30am 12.1 9.3 7.0 71 2.4 NW 11 17 6 9 1010.7 1010.7 2.6
20/12:00am 12.1 8.9 6.8 70 2.5 WNW 13 22 7 12 1010.7 1010.7 2.6
 
Date/Time
EDT
Temp
°C
App
Temp
°C
Dew
Point
°C
Rel
Hum
%
Delta-T
°C
Wind Press
QNH
hPa
Press
MSL
hPa
Rain since
9am
mm
Dir  Spd
km/h
Gust
km/h
Spd
kts
Gust
kts
19/11:30pm 12.4 9.3 7.1 70 2.6 WNW 13 19 7 10 1010.7 1010.7 2.6
19/11:00pm 12.6 9.9 7.3 70 2.6 WNW 11 26 6 14 1010.8 1010.8 2.6
19/10:30pm 12.6 10.2 7.1 69 2.7 WNW 9 19 5 10 1010.7 1010.7 2.6
19/10:00pm 12.9 10.5 6.9 67 2.9 W 9 20 5 11 1010.5 1010.5 2.6
19/09:30pm 12.9 11.2 7.4 69 2.7 WNW 6 13 3 7 1010.4 1010.4 2.6
19/09:00pm 12.9 10.5 7.1 68 2.8 WNW 9 19 5 10 1010.2 1010.2 2.6
19/08:30pm 12.7 10.4 7.4 70 2.6 WNW 9 20 5 11 1009.8 1009.8 2.6
19/08:00pm 12.7 10.4 7.6 71 2.5 W 9 20 5 11 1009.4 1009.4 2.6
19/07:30pm 12.3 9.4 8.0 75 2.1 W 13 24 7 13 1009.3 1009.3 2.6
19/07:00pm 13.7 10.9 6.8 63 3.3 W 11 24 6 13 1008.9 1008.9 2.4
19/06:30pm 14.6 11.3 6.4 58 4.0 SW 13 30 7 16 1008.7 1008.7 2.4
19/06:00pm 14.6 10.7 6.9 60 3.8 SW 17 37 9 20 1008.6 1008.6 2.4
19/05:30pm 16.7 13.0 6.5 51 5.0 WNW 15 28 8 15 1007.9 1007.9 2.4

Other Formats:

Comma delimited format used in spreadsheet applications
http://www.bom.gov.au/fwo/IDV60801/IDV60801.95936.axf

JavaScript Object Notation format (JSON) in row-major order
http://www.bom.gov.au/fwo/IDV60801/IDV60801.95936.json